createdAt,value
2022-10-12T00:01:00.280Z,15.38
2022-10-12T00:03:28.475Z,15.43
2022-10-12T00:06:04.758Z,15.35
2022-10-12T00:08:34.777Z,15.23
2022-10-12T00:11:03.504Z,14.55
2022-10-12T00:13:32.228Z,14.85
2022-10-12T00:16:04.181Z,14.95
2022-10-12T00:18:32.511Z,15.50
2022-10-12T00:21:04.798Z,14.45
2022-10-12T00:23:35.298Z,15.20
2022-10-12T00:26:04.943Z,15.48
2022-10-12T00:28:34.081Z,14.68
2022-10-12T00:31:03.353Z,14.95
2022-10-12T00:33:31.550Z,15.38
2022-10-12T00:35:59.834Z,15.50
2022-10-12T00:38:28.009Z,14.80
2022-10-12T00:40:57.587Z,15.18
2022-10-12T00:43:27.741Z,15.73
2022-10-12T00:45:56.176Z,14.73
2022-10-12T00:48:25.291Z,15.30
2022-10-12T00:50:54.133Z,15.45
2022-10-12T00:53:25.587Z,15.10
2022-10-12T00:56:00.891Z,15.23
2022-10-12T00:58:31.458Z,14.98
2022-10-12T01:01:02.601Z,14.68
2022-10-12T01:03:31.006Z,14.55
2022-10-12T01:05:59.865Z,14.43
2022-10-12T01:08:30.004Z,15.75
2022-10-12T01:10:59.615Z,14.85
2022-10-12T01:13:28.083Z,14.35
2022-10-12T01:16:02.315Z,14.80
2022-10-12T01:18:38.237Z,14.35
2022-10-12T01:21:18.597Z,13.98
2022-10-12T01:24:17.889Z,13.73
2022-10-12T01:27:04.389Z,14.77
2022-10-12T01:30:05.370Z,13.73
2022-10-12T01:32:41.125Z,15.00
2022-10-12T01:35:14.622Z,13.70
2022-10-12T01:37:50.353Z,15.00
2022-10-12T01:40:26.551Z,14.48
2022-10-12T01:42:56.640Z,14.70
2022-10-12T01:45:26.584Z,14.90
2022-10-12T01:47:56.369Z,15.00
2022-10-12T01:50:30.983Z,14.43
2022-10-12T01:53:08.421Z,14.35
2022-10-12T01:55:46.299Z,14.60
2022-10-12T01:58:34.453Z,14.93
2022-10-12T02:01:11.661Z,13.45
2022-10-12T02:03:47.245Z,14.43
2022-10-12T02:06:18.684Z,13.60
2022-10-12T02:08:54.293Z,14.10
2022-10-12T02:11:24.768Z,15.15
2022-10-12T02:13:57.089Z,13.43
2022-10-12T02:16:31.867Z,14.77
2022-10-12T02:19:01.843Z,14.32
2022-10-12T02:21:33.794Z,14.47
2022-10-12T02:24:06.373Z,14.20
2022-10-12T02:26:38.941Z,14.20
2022-10-12T02:29:10.848Z,14.03
2022-10-12T02:31:52.813Z,14.57
2022-10-12T02:34:26.107Z,12.57
2022-10-12T02:37:01.601Z,14.63
2022-10-12T02:39:33.116Z,13.75
2022-10-12T02:42:07.176Z,13.55
2022-10-12T02:44:40.121Z,13.93
2022-10-12T02:47:11.483Z,14.53
2022-10-12T02:49:41.163Z,13.85
2022-10-12T02:52:09.619Z,13.73
2022-10-12T02:54:38.015Z,14.70
2022-10-12T02:57:06.174Z,14.30
2022-10-12T02:59:34.701Z,14.13
2022-10-12T03:02:02.883Z,13.60
2022-10-12T03:04:32.473Z,13.83
2022-10-12T03:07:00.665Z,13.70
2022-10-12T03:09:29.087Z,14.27
2022-10-12T03:11:57.199Z,14.30
2022-10-12T03:14:26.970Z,13.60
2022-10-12T03:16:55.381Z,14.20
2022-10-12T03:19:23.661Z,13.73
2022-10-12T03:21:53.211Z,13.97
2022-10-12T03:24:21.457Z,14.03
2022-10-12T03:26:49.621Z,14.60
2022-10-12T03:29:17.885Z,14.80
2022-10-12T03:31:46.049Z,14.70
2022-10-12T03:34:14.240Z,14.63
2022-10-12T03:36:42.460Z,13.80
2022-10-12T03:39:12.519Z,14.60
2022-10-12T03:41:40.869Z,14.57
2022-10-12T03:44:09.018Z,15.80
2022-10-12T03:46:37.202Z,14.80
2022-10-12T03:49:05.586Z,14.32
2022-10-12T03:51:33.731Z,14.17
2022-10-12T03:54:02.047Z,15.65
2022-10-12T03:56:31.569Z,15.57
2022-10-12T03:58:59.800Z,14.80
2022-10-12T04:01:28.032Z,15.07
2022-10-12T04:03:56.200Z,14.90
2022-10-12T04:06:24.405Z,15.05
2022-10-12T04:08:52.665Z,16.67
2022-10-12T04:11:21.385Z,16.23
2022-10-12T04:13:50.952Z,16.17
2022-10-12T04:16:19.172Z,15.80
2022-10-12T04:18:47.412Z,15.60
2022-10-12T04:21:17.565Z,15.67
2022-10-12T04:23:45.789Z,15.70
2022-10-12T04:26:13.984Z,15.87
2022-10-12T04:28:42.239Z,16.03
2022-10-12T04:31:11.810Z,15.77
2022-10-12T04:33:39.984Z,17.13
2022-10-12T04:36:09.034Z,16.17
2022-10-12T04:38:37.273Z,16.05
2022-10-12T04:41:05.781Z,15.75
2022-10-12T04:43:33.993Z,16.00
2022-10-12T04:46:02.180Z,15.93
2022-10-12T04:48:31.814Z,15.73
2022-10-12T04:50:59.996Z,15.93
2022-10-12T04:53:28.315Z,15.23
2022-10-12T04:55:56.496Z,15.77
2022-10-12T04:58:24.764Z,15.50
2022-10-12T05:00:52.948Z,14.37
2022-10-12T05:03:21.190Z,15.23
2022-10-12T05:05:50.765Z,15.97
2022-10-12T05:08:19.074Z,16.33
2022-10-12T05:10:47.362Z,15.57
2022-10-12T05:13:15.922Z,16.67
2022-10-12T05:15:44.950Z,15.07
2022-10-12T05:18:13.234Z,15.43
2022-10-12T05:20:41.365Z,15.00
2022-10-12T05:23:11.859Z,15.73
2022-10-12T05:25:40.006Z,15.37
2022-10-12T05:28:08.690Z,14.20
2022-10-12T05:30:37.052Z,15.02
2022-10-12T05:33:05.296Z,15.02
2022-10-12T05:35:33.412Z,14.82
2022-10-12T05:38:01.716Z,15.43
2022-10-12T05:40:32.886Z,14.77
2022-10-12T05:43:01.127Z,16.30
2022-10-12T05:45:29.345Z,15.47
2022-10-12T05:47:57.609Z,15.03
2022-10-12T05:50:25.722Z,15.27
2022-10-12T05:52:53.971Z,16.13
2022-10-12T05:55:22.126Z,15.93
2022-10-12T05:57:52.078Z,16.10
2022-10-12T06:00:21.715Z,16.23
2022-10-12T06:02:49.958Z,16.17
2022-10-12T06:05:18.259Z,16.27
2022-10-12T06:07:46.553Z,16.80
2022-10-12T06:10:14.706Z,17.70
2022-10-12T06:12:43.366Z,16.88
2022-10-12T06:15:13.049Z,16.15
2022-10-12T06:17:41.230Z,17.63
2022-10-12T06:20:10.413Z,17.33
2022-10-12T06:22:39.654Z,16.43
2022-10-12T06:25:11.264Z,16.77
2022-10-12T06:27:40.300Z,18.00
2022-10-12T06:37:01.656Z,16.20
2022-10-12T06:39:32.596Z,17.15
2022-10-12T06:42:02.727Z,16.97
2022-10-12T06:44:45.074Z,16.67
2022-10-12T06:47:14.129Z,16.05
2022-10-12T06:49:43.332Z,15.95
2022-10-12T06:52:13.493Z,16.35
2022-10-12T06:54:45.937Z,16.08
2022-10-12T06:57:21.956Z,17.10
2022-10-12T06:59:52.401Z,15.80
2022-10-12T07:02:21.911Z,15.93
2022-10-12T07:07:42.316Z,16.40
2022-10-12T07:10:21.767Z,16.98
2022-10-12T07:12:51.639Z,16.50
2022-10-12T07:15:20.858Z,15.43
2022-10-12T07:17:49.657Z,15.23
2022-10-12T07:20:18.955Z,15.82
2022-10-12T07:22:57.061Z,16.48
2022-10-12T07:25:28.104Z,15.52
2022-10-12T07:28:15.830Z,15.63
2022-10-12T07:30:47.056Z,14.60
2022-10-12T07:33:16.503Z,16.27
2022-10-12T07:38:30.323Z,15.40
2022-10-12T07:41:01.466Z,15.43
2022-10-12T07:43:33.991Z,14.77
2022-10-12T07:46:05.437Z,14.68
2022-10-12T07:48:38.111Z,14.80
2022-10-12T07:51:33.019Z,14.93
2022-10-12T07:54:05.841Z,13.98
2022-10-12T07:56:34.513Z,14.60
2022-10-12T07:59:03.291Z,14.23
2022-10-12T08:01:34.997Z,14.38
2022-10-12T08:04:05.482Z,14.38
2022-10-12T08:06:38.244Z,11.80
2022-10-12T08:09:10.243Z,12.80
2022-10-12T08:11:41.243Z,13.07
2022-10-12T08:14:15.710Z,12.38
2022-10-12T08:16:45.128Z,13.13
2022-10-12T08:19:16.451Z,11.32
2022-10-12T08:21:45.360Z,12.23
2022-10-12T08:24:15.213Z,12.60
2022-10-12T08:26:43.870Z,11.98
2022-10-12T08:29:13.627Z,11.48
2022-10-12T08:31:44.101Z,11.38
2022-10-12T08:34:12.907Z,11.35
2022-10-12T08:36:44.134Z,10.55
2022-10-12T08:39:21.043Z,9.60
2022-10-12T08:42:00.715Z,9.15
2022-10-12T08:44:59.335Z,9.73
2022-10-12T08:47:41.904Z,9.57
2022-10-12T08:50:19.651Z,9.52
2022-10-12T08:52:55.094Z,10.00
2022-10-12T08:55:34.771Z,10.25
2022-10-12T08:58:04.141Z,10.30
2022-10-12T09:00:41.044Z,10.07
2022-10-12T09:03:29.207Z,11.15
2022-10-12T09:06:06.922Z,9.73
2022-10-12T09:08:51.238Z,10.40
2022-10-12T09:11:39.920Z,8.98
2022-10-12T09:14:12.522Z,9.00
2022-10-12T09:16:45.422Z,8.60
2022-10-12T09:19:19.843Z,7.45
2022-10-12T09:21:50.720Z,10.27
2022-10-12T09:24:23.878Z,10.50
2022-10-12T09:26:58.926Z,5.03
2022-10-12T09:29:29.866Z,8.75
2022-10-12T09:32:17.937Z,10.38
2022-10-12T09:34:49.666Z,7.95
2022-10-12T09:37:24.844Z,12.63
2022-10-12T09:39:56.517Z,20.05
2022-10-12T09:42:29.209Z,21.92
2022-10-12T09:45:02.727Z,14.10
2022-10-12T09:47:33.599Z,6.85
2022-10-12T09:50:08.312Z,28.83
2022-10-12T09:52:52.970Z,13.45
2022-10-12T09:58:00.136Z,4.80
2022-10-12T10:00:30.754Z,4.63
2022-10-12T10:02:59.686Z,3.78
2022-10-12T10:05:29.752Z,3.70
2022-10-12T10:08:18.854Z,3.40
2022-10-12T10:10:56.242Z,3.13
2022-10-12T10:13:46.182Z,3.10
2022-10-12T10:16:23.145Z,3.40
2022-10-12T10:19:02.016Z,3.40
2022-10-12T10:21:39.655Z,3.42
2022-10-12T10:24:23.794Z,2.97
2022-10-12T10:27:00.491Z,2.80
2022-10-12T10:29:44.260Z,3.00
2022-10-12T10:32:35.670Z,2.75
2022-10-12T10:35:19.168Z,2.80
2022-10-12T10:37:54.469Z,3.00
2022-10-12T10:40:29.557Z,2.28
2022-10-12T10:43:05.723Z,2.15
2022-10-12T10:45:53.388Z,2.47
2022-10-12T10:48:25.978Z,2.80
2022-10-12T10:51:00.349Z,3.10
2022-10-12T10:53:33.252Z,2.85
2022-10-12T10:56:08.611Z,2.60
2022-10-12T10:58:42.752Z,2.58
2022-10-12T11:01:20.894Z,2.80
2022-10-12T11:03:58.565Z,2.58
2022-10-12T11:06:40.671Z,2.10
2022-10-12T11:09:21.377Z,2.28
2022-10-12T11:12:08.826Z,2.30
2022-10-12T11:15:05.385Z,2.85
2022-10-12T11:17:47.134Z,2.30
2022-10-12T11:20:35.953Z,2.60
2022-10-12T11:23:17.156Z,2.58
2022-10-12T11:25:56.133Z,2.92
2022-10-12T11:28:29.206Z,2.60
2022-10-12T11:31:01.961Z,2.40
2022-10-12T11:33:43.722Z,2.60
2022-10-12T11:36:26.050Z,2.47
2022-10-12T11:39:07.339Z,2.90
2022-10-12T11:42:09.673Z,3.08
2022-10-12T11:44:49.947Z,3.80
2022-10-12T11:47:31.442Z,3.13
2022-10-12T11:50:10.225Z,2.95
2022-10-12T11:52:56.434Z,2.85
2022-10-12T11:55:40.918Z,3.05
2022-10-12T11:58:16.723Z,2.55
2022-10-12T12:01:09.821Z,3.10
2022-10-12T12:04:36.837Z,2.85
2022-10-12T12:07:57.033Z,2.85
2022-10-12T12:10:46.188Z,3.05
2022-10-12T12:13:27.343Z,3.05
2022-10-12T12:16:35.234Z,2.70
2022-10-12T12:19:35.513Z,2.85
2022-10-12T12:22:32.810Z,2.70
2022-10-12T12:25:23.793Z,2.72
2022-10-12T12:27:57.480Z,2.33
2022-10-12T12:30:37.055Z,2.83
2022-10-12T12:33:25.223Z,2.75
2022-10-12T12:35:56.807Z,2.67
2022-10-12T12:38:33.303Z,2.83
2022-10-12T12:41:10.032Z,2.78
2022-10-12T12:44:04.815Z,2.30
2022-10-12T12:46:52.229Z,2.42
2022-10-12T12:49:30.917Z,2.58
2022-10-12T12:52:00.275Z,2.50
2022-10-12T12:54:31.919Z,2.80
2022-10-12T12:57:36.665Z,2.70
2022-10-12T13:00:17.375Z,2.60
2022-10-12T13:03:19.729Z,2.30
2022-10-12T13:06:13.172Z,2.17
2022-10-12T13:09:04.147Z,2.30
2022-10-12T13:11:56.842Z,2.35
2022-10-12T13:18:23.105Z,2.13
2022-10-12T13:21:00.214Z,2.45
2022-10-12T13:23:30.933Z,2.00
2022-10-12T13:26:04.337Z,3.47
2022-10-12T13:28:40.675Z,1.95
2022-10-12T13:31:15.613Z,2.30
2022-10-12T13:33:52.041Z,2.30
2022-10-12T13:36:25.107Z,2.55
2022-10-12T13:39:24.118Z,2.25
2022-10-12T13:41:58.342Z,2.30
2022-10-12T13:44:33.539Z,2.33
2022-10-12T13:47:09.395Z,2.20
2022-10-12T13:49:44.945Z,2.03
2022-10-12T13:52:25.366Z,1.88
2022-10-12T13:55:00.615Z,2.10
2022-10-12T13:57:35.589Z,2.47
2022-10-12T14:00:21.375Z,2.60
2022-10-12T14:02:58.376Z,2.03
2022-10-12T14:05:40.698Z,2.20
2022-10-12T14:08:16.289Z,2.28
2022-10-12T14:10:45.513Z,2.10
2022-10-12T14:13:17.112Z,2.30
2022-10-12T14:16:07.382Z,2.10
2022-10-12T14:18:45.335Z,2.10
2022-10-12T14:21:22.839Z,2.20
2022-10-12T14:26:42.541Z,2.30
2022-10-12T14:29:45.636Z,1.90
2022-10-12T14:32:47.029Z,2.25
2022-10-12T14:35:25.184Z,2.50
2022-10-12T14:37:59.284Z,2.22
2022-10-12T14:40:34.648Z,2.53
2022-10-12T14:43:09.595Z,2.28
2022-10-12T14:45:39.678Z,2.42
2022-10-12T14:48:15.023Z,2.20
2022-10-12T14:50:47.885Z,2.20
2022-10-12T14:53:18.232Z,2.05
2022-10-12T14:55:52.280Z,2.65
2022-10-12T14:58:23.197Z,1.95
2022-10-12T15:00:52.757Z,2.15
2022-10-12T15:03:21.254Z,2.42
2022-10-12T15:05:51.256Z,1.75
2022-10-12T15:08:22.254Z,2.00
2022-10-12T15:10:52.424Z,2.25
2022-10-12T15:13:21.426Z,2.15
2022-10-12T15:15:52.654Z,1.92
2022-10-12T15:18:21.331Z,2.33
2022-10-12T15:20:52.148Z,2.20
2022-10-12T15:23:21.635Z,2.25
2022-10-12T15:25:54.544Z,2.22
2022-10-12T15:28:30.659Z,2.22
2022-10-12T15:34:00.950Z,2.20
2022-10-12T15:36:33.285Z,2.45
2022-10-12T15:39:02.920Z,2.65
2022-10-12T15:41:46.056Z,2.58
2022-10-12T15:44:26.096Z,2.60
2022-10-12T15:46:56.572Z,2.85
2022-10-12T15:49:37.656Z,3.53
2022-10-12T15:52:20.589Z,2.80
2022-10-12T15:54:50.362Z,2.65
2022-10-12T15:57:33.199Z,2.40
2022-10-12T16:00:05.862Z,2.53
2022-10-12T16:02:47.714Z,2.75
2022-10-12T16:05:20.127Z,3.15
2022-10-12T16:07:59.042Z,2.88
2022-10-12T16:10:34.734Z,3.38
2022-10-12T16:13:04.491Z,3.17
2022-10-12T16:15:35.697Z,3.03
2022-10-12T16:18:07.078Z,3.25
2022-10-12T16:20:39.682Z,3.35
2022-10-12T16:23:17.103Z,3.58
2022-10-12T16:25:46.226Z,2.80
2022-10-12T16:28:14.920Z,3.38
2022-10-12T16:30:44.875Z,3.20
2022-10-12T16:33:15.229Z,3.17
2022-10-12T16:35:44.379Z,3.30
2022-10-12T16:38:16.217Z,3.38
2022-10-12T16:40:44.817Z,3.33
2022-10-12T16:43:14.416Z,3.20
2022-10-12T16:45:58.055Z,2.88
2022-10-12T16:48:29.253Z,3.45
2022-10-12T16:50:59.493Z,3.40
2022-10-12T16:53:34.374Z,3.25
2022-10-12T16:56:04.833Z,3.63
2022-10-12T16:58:34.338Z,3.75
2022-10-12T17:04:08.239Z,3.45
2022-10-12T17:06:38.856Z,3.85
2022-10-12T17:09:09.187Z,3.38
2022-10-12T17:11:39.857Z,3.60
2022-10-12T17:14:12.973Z,3.97
2022-10-12T17:16:52.564Z,3.95
2022-10-12T17:19:23.649Z,3.58
2022-10-12T17:21:54.116Z,3.60
2022-10-12T17:24:31.363Z,3.33
2022-10-12T17:27:02.302Z,3.13
2022-10-12T17:29:37.957Z,3.60
2022-10-12T17:35:01.066Z,3.63
2022-10-12T17:40:31.875Z,3.95
2022-10-12T17:45:53.584Z,4.47
2022-10-12T17:48:22.655Z,4.05
2022-10-12T17:50:51.914Z,3.67
2022-10-12T17:53:24.354Z,4.32
2022-10-12T17:55:59.139Z,3.85
2022-10-12T17:58:30.507Z,3.97
2022-10-12T18:01:11.918Z,4.50
2022-10-12T18:04:06.327Z,4.10
2022-10-12T18:06:36.595Z,4.40
2022-10-12T18:09:09.590Z,4.28
2022-10-12T18:11:58.344Z,4.30
2022-10-12T18:14:41.559Z,4.75
2022-10-12T18:17:13.108Z,4.32
2022-10-12T18:19:43.854Z,4.78
2022-10-12T18:22:19.894Z,5.00
2022-10-12T18:24:49.789Z,5.28
2022-10-12T18:27:24.256Z,4.60
2022-10-12T18:29:53.239Z,4.88
2022-10-12T18:32:33.827Z,4.22
2022-10-12T18:37:51.320Z,4.45
2022-10-12T18:40:20.891Z,4.60
2022-10-12T18:42:57.177Z,4.63
2022-10-12T18:45:30.773Z,4.70
2022-10-12T18:48:07.504Z,4.43
2022-10-12T18:50:38.243Z,4.80
2022-10-12T18:53:08.890Z,5.18
2022-10-12T18:55:48.715Z,5.22
2022-10-12T18:58:27.697Z,4.82
2022-10-12T19:01:01.509Z,5.18
2022-10-12T19:03:33.642Z,5.53
2022-10-12T19:06:08.918Z,5.43
2022-10-12T19:08:41.065Z,5.18
2022-10-12T19:14:13.760Z,5.10
2022-10-12T19:16:46.052Z,5.40
2022-10-12T19:19:21.617Z,5.05
2022-10-12T19:21:52.949Z,5.75
2022-10-12T19:24:22.902Z,5.63
2022-10-12T19:26:53.703Z,5.78
2022-10-12T19:29:24.550Z,5.72
2022-10-12T19:34:55.490Z,5.40
2022-10-12T19:37:26.195Z,5.53
2022-10-12T19:39:58.038Z,5.40
2022-10-12T19:42:32.484Z,5.75
2022-10-12T19:45:06.475Z,6.75
2022-10-12T19:47:36.326Z,5.90
2022-10-12T19:50:06.846Z,6.63
2022-10-12T19:52:38.339Z,6.65
2022-10-12T19:55:13.571Z,5.90
2022-10-12T19:57:43.551Z,5.55
2022-10-12T20:00:23.997Z,5.72
2022-10-12T20:02:53.313Z,6.63
2022-10-12T20:05:24.335Z,7.18
2022-10-12T20:07:53.209Z,6.70
2022-10-12T20:10:25.751Z,6.50
2022-10-12T20:12:55.992Z,7.30
2022-10-12T20:15:55.785Z,6.75
2022-10-12T20:18:28.736Z,6.32
2022-10-12T20:21:02.081Z,5.80
2022-10-12T20:23:33.054Z,6.75
2022-10-12T20:26:06.513Z,6.57
2022-10-12T20:28:37.036Z,6.63
2022-10-12T20:31:11.557Z,6.60
2022-10-12T20:33:46.073Z,6.75
2022-10-12T20:36:22.749Z,5.97
2022-10-12T20:38:52.753Z,6.90
2022-10-12T20:41:25.571Z,6.70
2022-10-12T20:43:56.429Z,6.93
2022-10-12T20:46:27.642Z,6.63
2022-10-12T20:49:00.843Z,6.43
2022-10-12T20:51:31.341Z,6.78
2022-10-12T20:54:05.974Z,7.53
2022-10-12T20:56:35.421Z,6.93
2022-10-12T20:59:04.795Z,7.63
2022-10-12T21:01:38.975Z,6.80
2022-10-12T21:04:07.639Z,7.35
2022-10-12T21:06:40.725Z,7.30
2022-10-12T21:09:10.296Z,7.63
2022-10-12T21:11:39.590Z,7.88
2022-10-12T21:14:08.364Z,9.23
2022-10-12T21:16:38.027Z,9.43
2022-10-12T21:19:06.811Z,8.10
2022-10-12T21:21:35.597Z,8.95
2022-10-12T21:24:06.708Z,9.65
2022-10-12T21:26:36.518Z,9.43
2022-10-12T21:29:05.705Z,9.68
2022-10-12T21:31:35.034Z,9.98
2022-10-12T21:34:08.568Z,9.15
2022-10-12T21:36:40.406Z,9.52
2022-10-12T21:39:12.268Z,10.02
2022-10-12T21:41:41.191Z,9.18
2022-10-12T21:44:11.149Z,9.07
2022-10-12T21:46:42.664Z,10.00
2022-10-12T21:49:12.779Z,9.57
2022-10-12T21:51:45.398Z,8.70
2022-10-12T21:54:14.380Z,8.80
2022-10-12T21:56:43.413Z,10.25
2022-10-12T21:59:13.429Z,9.80
2022-10-12T22:01:43.506Z,9.95
2022-10-12T22:04:18.829Z,11.23
2022-10-12T22:06:47.316Z,9.73
2022-10-12T22:09:19.403Z,10.13
2022-10-12T22:11:49.483Z,9.13
2022-10-12T22:14:20.289Z,9.35
2022-10-12T22:16:49.548Z,9.55
2022-10-12T22:19:19.921Z,10.20
2022-10-12T22:21:49.305Z,10.70
2022-10-12T22:24:17.875Z,9.40
2022-10-12T22:26:46.566Z,9.20
2022-10-12T22:29:14.886Z,10.63
2022-10-12T22:31:45.712Z,10.45
2022-10-12T22:34:14.898Z,10.75
2022-10-12T22:36:47.496Z,10.25
2022-10-12T22:39:22.423Z,9.88
2022-10-12T22:41:52.096Z,10.05
2022-10-12T22:44:21.725Z,10.20
2022-10-12T22:46:56.255Z,10.15
2022-10-12T22:49:24.740Z,10.52
2022-10-12T22:51:55.818Z,10.40
2022-10-12T22:54:27.468Z,10.52
2022-10-12T22:56:55.890Z,11.35
2022-10-12T22:59:25.345Z,10.05
2022-10-12T23:01:57.364Z,10.73
2022-10-12T23:04:26.715Z,9.45
2022-10-12T23:06:56.697Z,10.13
2022-10-12T23:09:29.163Z,10.88
2022-10-12T23:12:01.493Z,10.80
2022-10-12T23:14:31.555Z,10.23
2022-10-12T23:17:00.119Z,10.25
2022-10-12T23:19:28.617Z,9.93
2022-10-12T23:21:58.691Z,10.13
2022-10-12T23:24:27.436Z,10.90
2022-10-12T23:26:56.916Z,10.55
2022-10-12T23:29:25.423Z,10.45
2022-10-12T23:31:54.590Z,10.15
2022-10-12T23:34:23.129Z,9.88
2022-10-12T23:36:52.536Z,10.88
2022-10-12T23:39:23.631Z,9.88
2022-10-12T23:41:52.174Z,10.63
2022-10-12T23:44:20.658Z,10.20
2022-10-12T23:46:49.017Z,12.15
2022-10-12T23:49:18.321Z,11.13
2022-10-12T23:51:52.756Z,10.90
2022-10-12T23:54:22.740Z,10.90
2022-10-12T23:56:54.234Z,11.70
2022-10-12T23:59:22.896Z,10.85
